createdAt,value
2023-05-24T00:03:16.846Z,9.82
2023-05-24T00:07:21.641Z,12.60
2023-05-24T00:11:25.061Z,6.82
2023-05-24T00:15:28.244Z,6.45
2023-05-24T00:19:31.596Z,7.53
2023-05-24T00:23:37.389Z,5.88
2023-05-24T00:27:40.733Z,15.48
2023-05-24T00:31:43.735Z,6.75
2023-05-24T00:35:47.560Z,5.90
2023-05-24T00:39:52.220Z,5.82
2023-05-24T00:43:55.598Z,6.25
2023-05-24T00:47:58.880Z,8.15
2023-05-24T00:52:02.695Z,7.03
2023-05-24T00:56:08.682Z,6.35
2023-05-24T01:00:13.089Z,8.23
2023-05-24T01:04:18.480Z,7.25
2023-05-24T01:08:38.688Z,9.30
2023-05-24T01:12:55.172Z,6.47
2023-05-24T01:17:05.910Z,6.78
2023-05-24T01:21:24.498Z,7.78
2023-05-24T01:25:47.041Z,5.57
2023-05-24T01:29:53.592Z,6.82
2023-05-24T01:33:56.829Z,10.57
2023-05-24T01:38:01.565Z,8.02
2023-05-24T01:42:13.222Z,10.07
2023-05-24T01:46:24.149Z,9.65
2023-05-24T01:50:33.136Z,8.60
2023-05-24T01:54:44.938Z,7.00
2023-05-24T01:58:54.545Z,9.25
2023-05-24T02:02:59.413Z,6.07
2023-05-24T02:07:02.880Z,6.75
2023-05-24T02:11:06.283Z,9.98
2023-05-24T02:15:11.114Z,6.10
2023-05-24T02:19:17.337Z,7.70
2023-05-24T02:23:20.838Z,6.35
2023-05-24T02:27:25.221Z,6.95
2023-05-24T02:31:29.311Z,10.05
2023-05-24T02:35:34.519Z,7.95
2023-05-24T02:39:37.968Z,8.75
2023-05-24T02:43:41.129Z,8.23
2023-05-24T02:47:44.642Z,7.75
2023-05-24T02:51:49.323Z,7.22
2023-05-24T02:55:52.670Z,9.85
2023-05-24T02:59:58.221Z,8.55
2023-05-24T03:04:02.160Z,6.90
2023-05-24T03:08:07.983Z,6.72
2023-05-24T03:12:11.573Z,7.40
2023-05-24T03:16:15.080Z,8.70
2023-05-24T03:20:18.947Z,7.55
2023-05-24T03:24:23.454Z,6.13
2023-05-24T03:28:28.892Z,7.22
2023-05-24T03:32:32.110Z,7.07
2023-05-24T03:36:35.949Z,6.25
2023-05-24T03:40:42.182Z,6.68
2023-05-24T03:44:45.512Z,6.35
2023-05-24T03:48:50.007Z,8.57
2023-05-24T03:52:53.550Z,7.78
2023-05-24T03:56:58.230Z,10.00
2023-05-24T04:01:02.760Z,14.90
2023-05-24T04:05:06.120Z,7.85
2023-05-24T04:09:10.896Z,7.90
2023-05-24T04:13:15.669Z,7.60
2023-05-24T04:17:19.395Z,6.13
2023-05-24T04:21:24.780Z,6.70
2023-05-24T04:25:28.687Z,8.15
2023-05-24T04:29:34.090Z,9.80
2023-05-24T04:33:37.688Z,7.28
2023-05-24T04:37:42.083Z,6.03
2023-05-24T04:41:45.742Z,6.72
2023-05-24T04:45:50.759Z,2.50
2023-05-24T04:49:54.930Z,3.13
2023-05-24T04:54:01.764Z,2.35
2023-05-24T04:58:06.447Z,3.30
2023-05-24T05:02:11.163Z,2.60
2023-05-24T05:06:15.594Z,4.85
2023-05-24T05:10:18.977Z,2.60
2023-05-24T05:14:22.270Z,5.22
2023-05-24T05:18:27.586Z,1.80
2023-05-24T05:22:31.523Z,1.58
2023-05-24T05:26:35.739Z,3.80
2023-05-24T05:30:39.029Z,1.77
2023-05-24T05:34:43.591Z,2.25
2023-05-24T05:38:48.547Z,0.70
2023-05-24T05:42:51.841Z,1.27
2023-05-24T05:46:55.111Z,2.38
2023-05-24T05:50:59.670Z,1.90
2023-05-24T05:55:03.306Z,4.10
2023-05-24T05:59:06.642Z,1.75
2023-05-24T06:03:10.377Z,3.13
2023-05-24T06:07:14.833Z,2.03
2023-05-24T06:11:19.060Z,2.38
2023-05-24T06:15:23.244Z,1.70
2023-05-24T06:19:27.428Z,2.40
2023-05-24T06:23:32.298Z,1.58
2023-05-24T06:27:36.878Z,1.83
2023-05-24T06:31:40.336Z,1.77
2023-05-24T06:35:43.875Z,2.22
2023-05-24T06:39:49.143Z,3.38
2023-05-24T06:43:52.331Z,2.72
2023-05-24T06:47:55.452Z,3.65
2023-05-24T06:51:59.118Z,2.40
2023-05-24T06:56:04.277Z,3.03
2023-05-24T07:00:12.582Z,1.30
2023-05-24T07:04:15.770Z,2.65
2023-05-24T07:08:22.140Z,1.60
2023-05-24T07:12:26.596Z,2.83
2023-05-24T07:16:29.630Z,2.80
2023-05-24T07:20:32.906Z,2.30
2023-05-24T07:24:36.711Z,1.73
2023-05-24T07:28:41.962Z,1.70
2023-05-24T07:32:46.016Z,5.25
2023-05-24T07:36:49.655Z,1.48
2023-05-24T07:40:53.805Z,2.60
2023-05-24T07:44:58.543Z,2.30
2023-05-24T07:49:01.788Z,2.75
2023-05-24T07:53:05.481Z,2.00
2023-05-24T07:57:10.951Z,2.63
2023-05-24T08:01:17.067Z,1.85
2023-05-24T08:05:20.392Z,2.25
2023-05-24T08:09:24.155Z,1.58
2023-05-24T08:13:27.355Z,2.70
2023-05-24T08:17:32.165Z,1.77
2023-05-24T08:21:35.918Z,3.47
2023-05-24T08:25:39.207Z,2.70
2023-05-24T08:29:42.631Z,2.28
2023-05-24T08:33:50.433Z,1.88
2023-05-24T08:37:55.195Z,1.58
2023-05-24T08:42:08.700Z,1.48
2023-05-24T08:46:15.839Z,1.23
2023-05-24T08:50:23.093Z,1.05
2023-05-24T08:54:26.733Z,3.05
2023-05-24T08:58:30.615Z,4.80
2023-05-24T09:02:34.606Z,0.60
2023-05-24T09:06:39.594Z,2.65
2023-05-24T09:10:53.952Z,1.55
2023-05-24T09:14:59.055Z,3.47
2023-05-24T09:19:03.840Z,1.17
2023-05-24T09:23:08.783Z,2.33
2023-05-24T09:27:12.399Z,3.17
2023-05-24T09:31:15.901Z,2.05
2023-05-24T09:35:19.790Z,1.83
2023-05-24T09:39:24.539Z,3.15
2023-05-24T09:43:30.732Z,3.65
2023-05-24T09:47:35.555Z,3.25
2023-05-24T09:51:39.793Z,5.22
2023-05-24T09:55:44.924Z,4.82
2023-05-24T09:59:48.944Z,4.25
2023-05-24T10:03:55.616Z,3.38
2023-05-24T10:07:59.204Z,4.70
2023-05-24T10:12:06.266Z,3.20
2023-05-24T10:16:09.487Z,3.13
2023-05-24T10:20:13.536Z,7.63
2023-05-24T10:24:23.167Z,2.78
2023-05-24T10:28:28.578Z,3.80
2023-05-24T10:32:33.852Z,5.03
2023-05-24T10:36:40.673Z,3.33
2023-05-24T10:40:45.272Z,3.25
2023-05-24T10:44:49.778Z,4.90
2023-05-24T10:49:03.165Z,3.28
2023-05-24T10:53:14.834Z,4.78
2023-05-24T10:57:26.054Z,3.50
2023-05-24T11:01:32.326Z,4.13
2023-05-24T11:05:37.422Z,3.50
2023-05-24T11:09:46.521Z,1.50
2023-05-24T11:13:51.089Z,4.47
2023-05-24T11:18:17.533Z,3.20
2023-05-24T11:22:22.883Z,3.58
2023-05-24T11:26:26.236Z,7.70
2023-05-24T11:30:29.934Z,3.60
2023-05-24T11:34:35.218Z,5.35
2023-05-24T11:38:38.811Z,4.30
2023-05-24T11:42:46.427Z,2.97
2023-05-24T11:46:49.936Z,2.97
2023-05-24T11:50:54.725Z,2.72
2023-05-24T11:54:58.343Z,1.77
2023-05-24T11:59:11.408Z,2.58
2023-05-24T12:03:14.938Z,5.78
2023-05-24T12:07:19.663Z,2.35
2023-05-24T12:11:23.506Z,4.78
2023-05-24T12:15:26.753Z,6.03
2023-05-24T12:19:35.916Z,4.45
2023-05-24T12:23:41.338Z,3.80
2023-05-24T12:27:48.299Z,3.28
2023-05-24T12:31:52.231Z,3.65
2023-05-24T12:35:56.539Z,5.60
2023-05-24T12:40:01.890Z,4.18
2023-05-24T12:44:05.255Z,12.73
2023-05-24T12:48:08.854Z,4.57
2023-05-24T12:52:12.831Z,5.13
2023-05-24T12:56:17.666Z,4.70
2023-05-24T13:00:23.255Z,7.28
2023-05-24T13:04:28.241Z,6.50
2023-05-24T13:08:32.020Z,3.63
2023-05-24T13:12:37.187Z,6.20
2023-05-24T13:16:40.494Z,3.97
2023-05-24T13:20:43.860Z,3.17
2023-05-24T13:24:47.428Z,6.95
2023-05-24T13:32:56.490Z,5.43
2023-05-24T13:37:00.198Z,5.75
2023-05-24T13:41:04.118Z,5.95
2023-05-24T13:45:08.857Z,12.43
2023-05-24T13:49:14.404Z,3.17
2023-05-24T13:53:17.772Z,5.20
2023-05-24T13:57:23.382Z,2.50
2023-05-24T14:01:28.537Z,4.10
2023-05-24T14:05:33.671Z,2.88
2023-05-24T14:09:37.102Z,3.78
2023-05-24T14:14:20.378Z,3.55
2023-05-24T14:18:09.890Z,3.60
2023-05-24T14:22:14.855Z,2.80
2023-05-24T14:26:18.808Z,2.67
2023-05-24T14:30:22.837Z,3.25
2023-05-24T14:34:27.029Z,2.80
2023-05-24T14:38:32.025Z,1.92
2023-05-24T14:42:35.204Z,5.57
2023-05-24T14:46:41.600Z,1.67
2023-05-24T14:50:45.146Z,1.30
2023-05-24T14:54:49.858Z,3.97
2023-05-24T14:58:55.727Z,2.53
2023-05-24T15:02:58.699Z,1.63
2023-05-24T15:07:02.077Z,1.80
2023-05-24T15:11:08.293Z,1.50
2023-05-24T15:15:12.578Z,2.15
2023-05-24T15:19:16.049Z,2.17
2023-05-24T15:23:21.232Z,2.17
2023-05-24T15:27:25.918Z,2.88
2023-05-24T15:31:29.708Z,2.20
2023-05-24T15:35:33.134Z,2.72
2023-05-24T15:39:37.228Z,2.67
2023-05-24T15:43:41.598Z,4.03
2023-05-24T15:47:44.804Z,2.50
2023-05-24T15:52:03.780Z,3.17
2023-05-24T15:56:08.474Z,3.03
2023-05-24T16:00:15.856Z,3.60
2023-05-24T16:04:19.111Z,3.15
2023-05-24T16:08:28.085Z,2.78
2023-05-24T16:12:33.048Z,3.55
2023-05-24T16:16:38.195Z,3.80
2023-05-24T16:20:41.647Z,3.15
2023-05-24T16:24:45.606Z,2.03
2023-05-24T16:28:48.999Z,2.03
2023-05-24T16:32:54.051Z,2.20
2023-05-24T16:36:57.762Z,5.47
2023-05-24T16:41:02.828Z,2.50
2023-05-24T16:45:07.323Z,3.08
2023-05-24T16:49:12.313Z,2.25
2023-05-24T16:53:15.660Z,4.07
2023-05-24T16:57:18.905Z,2.50
2023-05-24T17:01:22.572Z,3.28
2023-05-24T17:05:27.260Z,2.78
2023-05-24T17:09:30.542Z,3.75
2023-05-24T17:13:34.566Z,3.08
2023-05-24T17:17:38.540Z,6.22
2023-05-24T17:21:43.753Z,2.42
2023-05-24T17:25:46.903Z,3.17
2023-05-24T17:29:50.095Z,2.53
2023-05-24T17:33:53.715Z,3.10
2023-05-24T17:37:58.444Z,6.32
2023-05-24T17:42:03.062Z,9.45
2023-05-24T17:46:08.088Z,6.82
2023-05-24T17:50:12.052Z,7.13
2023-05-24T17:54:18.741Z,7.70
2023-05-24T17:58:21.826Z,7.10
2023-05-24T18:02:25.345Z,8.20
2023-05-24T18:06:28.505Z,9.07
2023-05-24T18:10:34.101Z,7.38
2023-05-24T18:14:38.367Z,7.28
2023-05-24T18:18:44.401Z,11.57
2023-05-24T18:22:47.640Z,9.05
2023-05-24T18:26:52.295Z,7.78
2023-05-24T18:30:56.188Z,7.18
2023-05-24T18:34:59.480Z,10.13
2023-05-24T18:39:03.685Z,8.73
2023-05-24T18:43:08.338Z,7.57
2023-05-24T18:47:12.241Z,10.48
2023-05-24T18:51:15.586Z,7.13
2023-05-24T18:55:19.017Z,10.85
2023-05-24T18:59:29.059Z,10.77
2023-05-24T19:03:32.554Z,9.50
2023-05-24T19:07:36.626Z,6.57
2023-05-24T19:11:41.077Z,9.27
2023-05-24T19:15:45.893Z,7.95
2023-05-24T19:19:51.861Z,10.20
2023-05-24T19:23:55.337Z,11.18
2023-05-24T19:28:00.777Z,8.85
2023-05-24T19:32:07.574Z,8.80
2023-05-24T19:36:12.603Z,12.20
2023-05-24T19:40:15.923Z,10.70
2023-05-24T19:44:19.364Z,8.93
2023-05-24T19:48:25.075Z,13.02
2023-05-24T19:52:28.460Z,10.95
2023-05-24T19:56:32.380Z,11.00
2023-05-24T20:00:35.988Z,12.27
2023-05-24T20:04:42.453Z,13.27
2023-05-24T20:08:48.069Z,24.90
2023-05-24T20:12:51.568Z,10.48
2023-05-24T20:16:54.772Z,11.25
2023-05-24T20:21:00.294Z,12.13
2023-05-24T20:25:03.553Z,15.82
2023-05-24T20:29:07.073Z,18.23
2023-05-24T20:33:10.226Z,15.43
2023-05-24T20:37:18.225Z,16.42
2023-05-24T20:41:21.362Z,15.65
2023-05-24T20:45:24.877Z,17.42
2023-05-24T20:49:29.255Z,14.73
2023-05-24T20:53:33.870Z,14.05
2023-05-24T20:57:37.111Z,14.00
2023-05-24T21:01:40.906Z,17.33
2023-05-24T21:05:44.742Z,14.32
2023-05-24T21:09:50.531Z,18.33
2023-05-24T21:13:53.594Z,20.00
2023-05-24T21:17:56.970Z,18.10
2023-05-24T21:22:00.419Z,15.30
2023-05-24T21:26:05.168Z,12.95
2023-05-24T21:30:09.757Z,11.25
2023-05-24T21:34:13.254Z,12.43
2023-05-24T21:38:16.764Z,12.13
2023-05-24T21:46:45.524Z,8.80
2023-05-24T21:50:48.832Z,9.13
2023-05-24T21:54:52.296Z,12.68
2023-05-24T21:58:57.015Z,11.80
2023-05-24T22:03:00.562Z,13.05
2023-05-24T22:07:03.780Z,16.35
2023-05-24T22:11:08.193Z,15.88
2023-05-24T22:15:13.492Z,12.50
2023-05-24T22:19:20.286Z,11.35
2023-05-24T22:23:28.577Z,12.20
2023-05-24T22:27:32.307Z,16.05
2023-05-24T22:31:37.177Z,12.45
2023-05-24T22:35:40.622Z,13.43
2023-05-24T22:39:45.685Z,9.82
2023-05-24T22:43:48.924Z,17.83
2023-05-24T22:47:55.107Z,15.13
2023-05-24T22:51:59.001Z,13.73
2023-05-24T22:56:02.504Z,13.65
2023-05-24T23:00:08.509Z,17.58
2023-05-24T23:04:21.036Z,12.13
2023-05-24T23:08:26.009Z,11.32
2023-05-24T23:12:29.480Z,15.02
2023-05-24T23:16:34.363Z,11.40
2023-05-24T23:20:40.411Z,11.27
2023-05-24T23:24:44.116Z,13.05
2023-05-24T23:28:47.323Z,12.73
2023-05-24T23:32:50.812Z,9.13
2023-05-24T23:36:55.753Z,14.55
2023-05-24T23:40:59.152Z,9.95
2023-05-24T23:45:02.679Z,9.85
2023-05-24T23:49:05.883Z,12.32
2023-05-24T23:53:10.663Z,13.10
2023-05-24T23:57:15.865Z,13.82
